Time;durP1;ratioP1;P1;durP2;ratioP2;P2;SDS_P1;SDS_P2;PMS_P1;PMS_P2;Temp;Humidity;BMP_temperature;BMP_pressure;BME280_temperature;BME280_humidity;BME280_pressure;Samples;Min_cycle;Max_cycle;Signal;HPM_P1;HPM_P2
2021/09/20 00:00:01;;;;;;;;;;;;;;;;;;2087644;28;19935;-61
2021/09/20 00:01:02;;;;;;;;;;;;;;;;;;2090951;28;19928;-62
2021/09/20 00:02:03;;;;;;;;;;;;;;;;;;2090670;28;19920;-62
2021/09/20 00:03:04;;;;;;;;;;;;;;;;;;2089241;28;19935;-62
2021/09/20 00:04:05;;;;;;;;;;;;;;;;;;2090967;28;19925;-62
2021/09/20 00:05:06;;;;;;;;;;;;;;;;;;2090599;28;19920;-62
2021/09/20 00:06:06;;;;;;;;;;;;;;;;;;2088986;28;20113;-62
2021/09/20 00:07:07;;;;;;;;;;;;;;;;;;2091044;28;19928;-62
2021/09/20 00:08:08;;;;;;;;;;;;;;;;;;2090582;28;20267;-63
2021/09/20 00:09:09;;;;;;;;;;;;;;;;;;2087474;28;20010;-61
2021/09/20 00:10:09;;;;;;;;;;;;;;;;;;2083134;28;20324;-43
2021/09/20 00:11:10;;;;;;;;;;;;;;;;;;2084241;28;20378;-43
2021/09/20 00:12:13;;;;;;;;;;;;;;;;;;2086896;28;19931;-43
2021/09/20 00:13:14;;;;;;;;;;;;;;;;;;2082822;28;20008;-43
2021/09/20 00:14:14;;;;;;;;;;;;;;;;;;2084674;28;20285;-43
2021/09/20 00:15:15;;;;;;;;;;;;;;;;;;2089581;28;19921;-43
2021/09/20 00:16:16;;;;;;;;;;;;;;;;;;2090944;28;19920;-43
2021/09/20 00:17:17;;;;;;;;;;;;;;;;;;2090226;28;19929;-43
2021/09/20 00:18:18;;;;;;;;;;;;;;;;;;2085668;28;19921;-43
2021/09/20 00:19:19;;;;;;;;;;;;;;;;;;2082705;28;19921;-43
2021/09/20 00:20:19;;;;;;;;;;;;;;;;;;2085908;28;19936;-43
2021/09/20 00:21:20;;;;;;;;;;;;;;;;;;2089729;28;20321;-43
2021/09/20 00:22:21;;;;;;;;;;;;;;;;;;2091097;28;19927;-43
2021/09/20 00:23:22;;;;;;;;;;;;;;;;;;2090049;28;19928;-43
2021/09/20 00:24:23;;;;;;;;;;;;;;;;;;2084634;28;19964;-43
2021/09/20 00:25:23;;;;;;;;;;;;;;;;;;2082591;28;19924;-43
2021/09/20 00:26:24;;;;;;;;;;;;;;;;;;2087018;28;19928;-43
2021/09/20 00:27:25;;;;;;;;;;;;;;;;;;2083931;28;19925;-43
2021/09/20 00:28:26;;;;;;;;;;;;;;;;;;2082622;28;19921;-43
2021/09/20 00:29:27;;;;;;;;;;;;;;;;;;2086348;28;19928;-43
2021/09/20 00:30:27;;;;;;;;;;;;;;;;;;2090719;28;19920;-43
2021/09/20 00:31:28;;;;;;;;;;;;;;;;;;2090977;28;19998;-43
2021/09/20 00:32:29;;;;;;;;;;;;;;;;;;2088714;28;20281;-43
2021/09/20 00:33:30;;;;;;;;;;;;;;;;;;2090019;28;19921;-43
2021/09/20 00:34:31;;;;;;;;;;;;;;;;;;2090906;28;19921;-43
2021/09/20 00:35:31;;;;;;;;;;;;;;;;;;2089462;28;19943;-43
2021/09/20 00:36:32;;;;;;;;;;;;;;;;;;2082629;28;19921;-43
2021/09/20 00:37:33;;;;;;;;;;;;;;;;;;2082735;28;19928;-43
2021/09/20 00:38:34;;;;;;;;;;;;;;;;;;2088115;28;19975;-43
2021/09/20 00:39:35;;;;;;;;;;;;;;;;;;2090978;28;19925;-43
2021/09/20 00:40:36;;;;;;;;;;;;;;;;;;2090301;28;19925;-43
2021/09/20 00:41:37;;;;;;;;;;;;;;;;;;2088560;28;19920;-43
2021/09/20 00:42:37;;;;;;;;;;;;;;;;;;2082642;28;20436;-43
2021/09/20 00:43:38;;;;;;;;;;;;;;;;;;2082747;28;19921;-43
2021/09/20 00:44:39;;;;;;;;;;;;;;;;;;2088321;28;19942;-43
2021/09/20 00:45:40;;;;;;;;;;;;;;;;;;2090710;28;19921;-43
2021/09/20 00:46:41;;;;;;;;;;;;;;;;;;2090371;28;19920;-43
2021/09/20 00:47:41;;;;;;;;;;;;;;;;;;2087289;28;19929;-43
2021/09/20 00:48:42;;;;;;;;;;;;;;;;;;2082665;28;19925;-43
2021/09/20 00:49:43;;;;;;;;;;;;;;;;;;2083851;28;20302;-43
2021/09/20 00:50:44;;;;;;;;;;;;;;;;;;2085337;28;19929;-43
2021/09/20 00:51:45;;;;;;;;;;;;;;;;;;2082493;28;19928;-43
2021/09/20 00:52:45;;;;;;;;;;;;;;;;;;2084477;28;19925;-43
2021/09/20 00:53:46;;;;;;;;;;;;;;;;;;2085488;28;19968;-43
2021/09/20 00:54:50;;;;;;;;;;;;;;;;;;2085049;28;20270;-43
2021/09/20 00:55:51;;;;;;;;;;;;;;;;;;2090007;28;19924;-43
2021/09/20 00:56:51;;;;;;;;;;;;;;;;;;2089261;28;19921;-43
2021/09/20 00:57:52;;;;;;;;;;;;;;;;;;2090734;28;19944;-43
2021/09/20 00:58:53;;;;;;;;;;;;;;;;;;2089699;28;19975;-43
2021/09/20 00:59:54;;;;;;;;;;;;;;;;;;2089444;28;20350;-43
2021/09/20 01:00:54;;;;;;;;;;;;;;;;;;2090663;28;19921;-43
2021/09/20 01:01:56;;;;;;;;;;;;;;;;;;2089746;28;19920;-43
2021/09/20 01:02:56;;;;;;;;;;;;;;;;;;2083447;28;20015;-43
2021/09/20 01:03:58;;;;;;;;;;;;;;;;;;2082445;28;19921;-43
2021/09/20 01:04:58;;;;;;;;;;;;;;;;;;2086684;28;20275;-43
2021/09/20 01:05:59;;;;;;;;;;;;;;;;;;2083623;28;19928;-43
2021/09/20 01:07:00;;;;;;;;;;;;;;;;;;2082421;28;20301;-43
2021/09/20 01:08:01;;;;;;;;;;;;;;;;;;2086296;28;19927;-43
2021/09/20 01:09:02;;;;;;;;;;;;;;;;;;2090646;28;19928;-43
2021/09/20 01:10:03;;;;;;;;;;;;;;;;;;2090596;28;19920;-43
2021/09/20 01:11:03;;;;;;;;;;;;;;;;;;2088353;28;19974;-43
2021/09/20 01:12:04;;;;;;;;;;;;;;;;;;2089440;28;19928;-43
2021/09/20 01:13:05;;;;;;;;;;;;;;;;;;2090708;28;19947;-43
2021/09/20 01:14:06;;;;;;;;;;;;;;;;;;2089074;28;20313;-43
2021/09/20 01:15:06;;;;;;;;;;;;;;;;;;2082425;28;19921;-43
2021/09/20 01:16:07;;;;;;;;;;;;;;;;;;2082293;28;19928;-43
2021/09/20 01:17:08;;;;;;;;;;;;;;;;;;2087897;28;19921;-43
2021/09/20 01:18:09;;;;;;;;;;;;;;;;;;2082304;28;20259;-43
2021/09/20 01:19:10;;;;;;;;;;;;;;;;;;2082019;28;19927;-43
2021/09/20 01:20:12;;;;;;;;;;;;;;;;;;2088401;28;20354;-43
2021/09/20 01:21:14;;;;;;;;;;;;;;;;;;2082276;28;20002;-43
2021/09/20 01:22:15;;;;;;;;;;;;;;;;;;2082935;28;19957;-43
2021/09/20 01:23:15;;;;;;;;;;;;;;;;;;2087408;28;19970;-43
2021/09/20 01:24:16;;;;;;;;;;;;;;;;;;2082434;28;19927;-43
2021/09/20 01:25:17;;;;;;;;;;;;;;;;;;2083109;28;19928;-43
2021/09/20 01:26:18;;;;;;;;;;;;;;;;;;2088885;28;19975;-43
2021/09/20 01:27:19;;;;;;;;;;;;;;;;;;2090446;28;20267;-43
2021/09/20 01:28:19;;;;;;;;;;;;;;;;;;2089881;28;20298;-43
2021/09/20 01:29:20;;;;;;;;;;;;;;;;;;2086318;28;19928;-43
2021/09/20 01:30:21;;;;;;;;;;;;;;;;;;2082184;28;19921;-43
2021/09/20 01:31:22;;;;;;;;;;;;;;;;;;2084188;28;19981;-43
2021/09/20 01:32:23;;;;;;;;;;;;;;;;;;2085920;28;19928;-43
2021/09/20 01:33:23;;;;;;;;;;;;;;;;;;2082308;28;19928;-43
2021/09/20 01:34:24;;;;;;;;;;;;;;;;;;2084945;28;19927;-43
2021/09/20 01:35:25;;;;;;;;;;;;;;;;;;2085263;28;20047;-43
2021/09/20 01:36:26;;;;;;;;;;;;;;;;;;2082399;28;19967;-43
2021/09/20 01:37:27;;;;;;;;;;;;;;;;;;2085535;28;19987;-43
2021/09/20 01:38:28;;;;;;;;;;;;;;;;;;2084045;28;20329;-43
2021/09/20 01:39:28;;;;;;;;;;;;;;;;;;2081490;28;19928;-44
2021/09/20 01:40:29;;;;;;;;;;;;;;;;;;2089430;28;19920;-43
2021/09/20 01:41:30;;;;;;;;;;;;;;;;;;2090187;28;19995;-43
2021/09/20 01:42:31;;;;;;;;;;;;;;;;;;2090552;28;19920;-43
2021/09/20 01:43:32;;;;;;;;;;;;;;;;;;2088917;28;21267;-43
2021/09/20 01:44:32;;;;;;;;;;;;;;;;;;2089793;28;20267;-43
2021/09/20 01:45:33;;;;;;;;;;;;;;;;;;2090466;28;19924;-43
2021/09/20 01:46:34;;;;;;;;;;;;;;;;;;2088311;28;19932;-43
2021/09/20 01:47:35;;;;;;;;;;;;;;;;;;2082317;28;19932;-43
2021/09/20 01:48:36;;;;;;;;;;;;;;;;;;2082061;28;19932;-43
2021/09/20 01:49:37;;;;;;;;;;;;;;;;;;2088559;28;19932;-43
2021/09/20 01:50:38;;;;;;;;;;;;;;;;;;2086845;28;20290;-44
2021/09/20 01:51:39;;;;;;;;;;;;;;;;;;2089483;28;19924;-43
2021/09/20 01:52:39;;;;;;;;;;;;;;;;;;2087060;28;19927;-43
2021/09/20 01:53:40;;;;;;;;;;;;;;;;;;2082146;28;19921;-43
2021/09/20 01:54:41;;;;;;;;;;;;;;;;;;2082954;28;19921;-43
2021/09/20 01:55:42;;;;;;;;;;;;;;;;;;2086785;28;19928;-43
2021/09/20 01:56:43;;;;;;;;;;;;;;;;;;2082258;28;19921;-43
2021/09/20 01:57:43;;;;;;;;;;;;;;;;;;2083717;28;19921;-43
2021/09/20 01:58:44;;;;;;;;;;;;;;;;;;2088649;28;19925;-43
2021/09/20 01:59:45;;;;;;;;;;;;;;;;;;2090349;28;19967;-43
2021/09/20 02:00:47;;;;;;;;;;;;;;;;;;2089362;28;19935;-42
2021/09/20 02:01:48;;;;;;;;;;;;;;;;;;2088813;28;19921;-43
2021/09/20 02:02:49;;;;;;;;;;;;;;;;;;2090253;28;19920;-43
2021/09/20 02:03:50;;;;;;;;;;;;;;;;;;2089427;28;19951;-43
2021/09/20 02:04:51;;;;;;;;;;;;;;;;;;2083964;28;19921;-43
2021/09/20 02:05:52;;;;;;;;;;;;;;;;;;2082100;28;19928;-43
2021/09/20 02:06:53;;;;;;;;;;;;;;;;;;2085608;28;20277;-43
2021/09/20 02:07:54;;;;;;;;;;;;;;;;;;2088856;28;20327;-43
2021/09/20 02:08:54;;;;;;;;;;;;;;;;;;2090224;28;19925;-43
2021/09/20 02:09:55;;;;;;;;;;;;;;;;;;2089234;28;19970;-43
2021/09/20 02:10:56;;;;;;;;;;;;;;;;;;2089133;28;20281;-43
2021/09/20 02:11:57;;;;;;;;;;;;;;;;;;2090404;28;20344;-43
2021/09/20 02:12:57;;;;;;;;;;;;;;;;;;2089279;28;19921;-43
2021/09/20 02:13:58;;;;;;;;;;;;;;;;;;2083099;28;19921;-43
2021/09/20 02:14:59;;;;;;;;;;;;;;;;;;2081909;28;19921;-43
2021/09/20 02:16:00;;;;;;;;;;;;;;;;;;2085968;28;19928;-43
2021/09/20 02:17:01;;;;;;;;;;;;;;;;;;2089750;28;19943;-43
2021/09/20 02:18:02;;;;;;;;;;;;;;;;;;2090354;28;19921;-43
2021/09/20 02:19:03;;;;;;;;;;;;;;;;;;2087254;28;19921;-42
2021/09/20 02:20:03;;;;;;;;;;;;;;;;;;2081900;28;19920;-43
2021/09/20 02:21:04;;;;;;;;;;;;;;;;;;2082709;28;19971;-43
2021/09/20 02:22:05;;;;;;;;;;;;;;;;;;2086796;28;20360;-43
2021/09/20 02:23:06;;;;;;;;;;;;;;;;;;2081708;28;19971;-42
2021/09/20 02:24:06;;;;;;;;;;;;;;;;;;2083169;28;19928;-43
2021/09/20 02:25:07;;;;;;;;;;;;;;;;;;2086312;28;19928;-43
2021/09/20 02:26:08;;;;;;;;;;;;;;;;;;2081944;28;19924;-43
2021/09/20 02:27:09;;;;;;;;;;;;;;;;;;2083836;28;20362;-43
2021/09/20 02:28:10;;;;;;;;;;;;;;;;;;2083755;28;19920;-43
2021/09/20 02:29:11;;;;;;;;;;;;;;;;;;2081871;28;20340;-43
2021/09/20 02:30:11;;;;;;;;;;;;;;;;;;2085610;28;19931;-43
2021/09/20 02:31:12;;;;;;;;;;;;;;;;;;2089272;28;19924;-43
2021/09/20 02:32:13;;;;;;;;;;;;;;;;;;2090137;28;20007;-43
2021/09/20 02:33:14;;;;;;;;;;;;;;;;;;2088081;28;19920;-43
2021/09/20 02:34:15;;;;;;;;;;;;;;;;;;2089114;28;19921;-43
2021/09/20 02:35:15;;;;;;;;;;;;;;;;;;2089936;28;19925;-43
2021/09/20 02:36:16;;;;;;;;;;;;;;;;;;2089075;28;19938;-43
2021/09/20 02:37:17;;;;;;;;;;;;;;;;;;2082089;28;20409;-43
2021/09/20 02:38:18;;;;;;;;;;;;;;;;;;2081905;28;19927;-43
2021/09/20 02:39:19;;;;;;;;;;;;;;;;;;2087576;28;19931;-43
2021/09/20 02:40:19;;;;;;;;;;;;;;;;;;2081743;28;19921;-43
2021/09/20 02:41:20;;;;;;;;;;;;;;;;;;2081981;28;19928;-43
2021/09/20 02:42:21;;;;;;;;;;;;;;;;;;2087459;28;20448;-43
2021/09/20 02:43:22;;;;;;;;;;;;;;;;;;2081948;28;20263;-43
2021/09/20 02:44:23;;;;;;;;;;;;;;;;;;2082034;28;19921;-43
2021/09/20 02:45:24;;;;;;;;;;;;;;;;;;2087652;28;19925;-42
2021/09/20 02:46:24;;;;;;;;;;;;;;;;;;2090116;28;19925;-43
2021/09/20 02:47:25;;;;;;;;;;;;;;;;;;2089714;28;20305;-43
2021/09/20 02:48:26;;;;;;;;;;;;;;;;;;2088846;28;19928;-43
2021/09/20 02:49:27;;;;;;;;;;;;;;;;;;2089932;28;20362;-43
2021/09/20 02:50:28;;;;;;;;;;;;;;;;;;2087491;28;19927;-43
2021/09/20 02:51:28;;;;;;;;;;;;;;;;;;2086524;28;19920;-44
2021/09/20 02:52:29;;;;;;;;;;;;;;;;;;2081773;28;19921;-43
2021/09/20 02:53:30;;;;;;;;;;;;;;;;;;2082709;28;19925;-44
2021/09/20 02:54:31;;;;;;;;;;;;;;;;;;2088090;28;19921;-44
2021/09/20 02:55:32;;;;;;;;;;;;;;;;;;2090003;28;19928;-44
2021/09/20 02:56:33;;;;;;;;;;;;;;;;;;2089375;28;19920;-44
2021/09/20 02:57:33;;;;;;;;;;;;;;;;;;2084952;28;19921;-44
2021/09/20 02:58:34;;;;;;;;;;;;;;;;;;2081858;28;20019;-44
2021/09/20 02:59:35;;;;;;;;;;;;;;;;;;2083817;28;20289;-44
2021/09/20 03:00:36;;;;;;;;;;;;;;;;;;2087297;28;20433;-44
2021/09/20 03:01:37;;;;;;;;;;;;;;;;;;2090030;28;19933;-44
2021/09/20 03:02:38;;;;;;;;;;;;;;;;;;2088985;28;20293;-44
2021/09/20 03:03:39;;;;;;;;;;;;;;;;;;2083569;28;19921;-44
2021/09/20 03:04:40;;;;;;;;;;;;;;;;;;2081714;28;19921;-44
2021/09/20 03:05:40;;;;;;;;;;;;;;;;;;2085016;28;19928;-44
2021/09/20 03:06:41;;;;;;;;;;;;;;;;;;2081855;28;19925;-43
2021/09/20 03:07:42;;;;;;;;;;;;;;;;;;2081821;28;19928;-44
2021/09/20 03:08:43;;;;;;;;;;;;;;;;;;2087388;28;19928;-44
2021/09/20 03:09:44;;;;;;;;;;;;;;;;;;2081594;28;19966;-44
2021/09/20 03:10:45;;;;;;;;;;;;;;;;;;2081663;28;19968;-44
2021/09/20 03:11:45;;;;;;;;;;;;;;;;;;2086573;28;20345;-43
2021/09/20 03:12:46;;;;;;;;;;;;;;;;;;2090008;28;19921;-44
2021/09/20 03:13:47;;;;;;;;;;;;;;;;;;2089834;28;19921;-43
2021/09/20 03:14:48;;;;;;;;;;;;;;;;;;2087413;28;19921;-44
2021/09/20 03:15:49;;;;;;;;;;;;;;;;;;2089800;28;19920;-44
2021/09/20 03:16:49;;;;;;;;;;;;;;;;;;2089663;28;20294;-44
2021/09/20 03:17:50;;;;;;;;;;;;;;;;;;2087867;28;19933;-44
2021/09/20 03:18:51;;;;;;;;;;;;;;;;;;2089967;28;19974;-44
2021/09/20 03:19:52;;;;;;;;;;;;;;;;;;2089417;28;19974;-43
2021/09/20 03:20:52;;;;;;;;;;;;;;;;;;2087760;28;19928;-43
2021/09/20 03:21:53;;;;;;;;;;;;;;;;;;2090000;28;19921;-43
2021/09/20 03:22:54;;;;;;;;;;;;;;;;;;2089324;28;19921;-43
2021/09/20 03:23:55;;;;;;;;;;;;;;;;;;2088324;28;20333;-58
2021/09/20 03:24:56;;;;;;;;;;;;;;;;;;2089857;28;19927;-58
2021/09/20 03:25:57;;;;;;;;;;;;;;;;;;2089164;28;19921;-57
2021/09/20 03:26:57;;;;;;;;;;;;;;;;;;2087908;28;19950;-57
2021/09/20 03:27:58;;;;;;;;;;;;;;;;;;2089907;28;20007;-57
2021/09/20 03:28:59;;;;;;;;;;;;;;;;;;2089033;28;19928;-57
2021/09/20 03:30:00;;;;;;;;;;;;;;;;;;2084903;28;20432;-57
2021/09/20 03:31:00;;;;;;;;;;;;;;;;;;2081613;28;20371;-60
2021/09/20 03:32:01;;;;;;;;;;;;;;;;;;2084151;28;19944;-61
2021/09/20 03:33:02;;;;;;;;;;;;;;;;;;2083630;28;20282;-61
2021/09/20 03:34:03;;;;;;;;;;;;;;;;;;2081513;28;19921;-60
2021/09/20 03:35:04;;;;;;;;;;;;;;;;;;2084136;28;20218;-60
2021/09/20 03:36:05;;;;;;;;;;;;;;;;;;2088339;28;19924;-60
2021/09/20 03:37:06;;;;;;;;;;;;;;;;;;2089734;28;19924;-61
2021/09/20 03:38:07;;;;;;;;;;;;;;;;;;2088627;28;19956;-58
2021/09/20 03:39:08;;;;;;;;;;;;;;;;;;2088990;28;19920;-58
2021/09/20 03:40:09;;;;;;;;;;;;;;;;;;2089828;28;19921;-57
2021/09/20 03:41:10;;;;;;;;;;;;;;;;;;2087813;28;20273;-58
2021/09/20 03:42:11;;;;;;;;;;;;;;;;;;2089157;28;19921;-60
2021/09/20 03:43:11;;;;;;;;;;;;;;;;;;2089639;28;19928;-59
2021/09/20 03:44:12;;;;;;;;;;;;;;;;;;2088405;28;19924;-60
2021/09/20 03:45:13;;;;;;;;;;;;;;;;;;2082088;28;19929;-60
2021/09/20 03:46:14;;;;;;;;;;;;;;;;;;2081450;28;19925;-61
2021/09/20 03:47:15;;;;;;;;;;;;;;;;;;2085991;28;19920;-60
2021/09/20 03:48:16;;;;;;;;;;;;;;;;;;2089627;28;20007;-60
2021/09/20 03:49:16;;;;;;;;;;;;;;;;;;2089721;28;20325;-60
2021/09/20 03:50:17;;;;;;;;;;;;;;;;;;2087204;28;19928;-60
2021/09/20 03:51:18;;;;;;;;;;;;;;;;;;2080598;28;19921;-60
2021/09/20 03:52:19;;;;;;;;;;;;;;;;;;2081449;28;19921;-60
2021/09/20 03:53:20;;;;;;;;;;;;;;;;;;2087026;28;20281;-60
2021/09/20 03:54:21;;;;;;;;;;;;;;;;;;2089673;28;19921;-60
2021/09/20 03:55:21;;;;;;;;;;;;;;;;;;2089141;28;20358;-61
2021/09/20 03:56:22;;;;;;;;;;;;;;;;;;2087763;28;19929;-59
2021/09/20 03:57:23;;;;;;;;;;;;;;;;;;2089577;28;19974;-60
2021/09/20 03:58:24;;;;;;;;;;;;;;;;;;2089253;28;19921;-61
2021/09/20 03:59:25;;;;;;;;;;;;;;;;;;2087765;28;19975;-60
2021/09/20 04:00:26;;;;;;;;;;;;;;;;;;2089536;28;20284;-61
2021/09/20 04:01:27;;;;;;;;;;;;;;;;;;2088950;28;19921;-57
2021/09/20 04:02:28;;;;;;;;;;;;;;;;;;2086009;28;19921;-57
2021/09/20 04:03:29;;;;;;;;;;;;;;;;;;2081342;28;19975;-58
2021/09/20 04:04:30;;;;;;;;;;;;;;;;;;2083066;28;19975;-59
2021/09/20 04:05:31;;;;;;;;;;;;;;;;;;2087936;28;19928;-54
2021/09/20 04:06:31;;;;;;;;;;;;;;;;;;2089692;28;19921;-43
2021/09/20 04:07:32;;;;;;;;;;;;;;;;;;2088844;28;19951;-43
2021/09/20 04:08:34;;;;;;;;;;;;;;;;;;2082902;28;19933;-43
2021/09/20 04:09:35;;;;;;;;;;;;;;;;;;2081428;28;19925;-43
2021/09/20 04:10:36;;;;;;;;;;;;;;;;;;2084834;28;19920;-44
2021/09/20 04:11:40;;;;;;;;;;;;;;;;;;2089525;28;19925;-43
2021/09/20 04:12:41;;;;;;;;;;;;;;;;;;2089493;28;20023;-43
2021/09/20 04:13:42;;;;;;;;;;;;;;;;;;2086689;28;20389;-43
2021/09/20 04:14:42;;;;;;;;;;;;;;;;;;2089438;28;19927;-43
2021/09/20 04:15:43;;;;;;;;;;;;;;;;;;2089629;28;19921;-43
2021/09/20 04:16:44;;;;;;;;;;;;;;;;;;2087247;28;20382;-43
2021/09/20 04:17:45;;;;;;;;;;;;;;;;;;2089543;28;19974;-43
2021/09/20 04:18:46;;;;;;;;;;;;;;;;;;2089575;28;19925;-43
2021/09/20 04:19:46;;;;;;;;;;;;;;;;;;2087127;28;19951;-43
2021/09/20 04:20:48;;;;;;;;;;;;;;;;;;2089413;28;19921;-43
2021/09/20 04:21:49;;;;;;;;;;;;;;;;;;2089055;28;19981;-43
2021/09/20 04:22:50;;;;;;;;;;;;;;;;;;2087563;28;20010;-43
2021/09/20 04:23:51;;;;;;;;;;;;;;;;;;2089389;28;19966;-43
2021/09/20 04:24:52;;;;;;;;;;;;;;;;;;2089170;28;19920;-43
2021/09/20 04:25:52;;;;;;;;;;;;;;;;;;2087455;28;19973;-43
2021/09/20 04:26:53;;;;;;;;;;;;;;;;;;2089539;28;20011;-43
2021/09/20 04:27:54;;;;;;;;;;;;;;;;;;2088968;28;19944;-43
2021/09/20 04:28:55;;;;;;;;;;;;;;;;;;2087650;28;19924;-43
2021/09/20 04:29:56;;;;;;;;;;;;;;;;;;2089474;28;19932;-43
2021/09/20 04:30:57;;;;;;;;;;;;;;;;;;2088902;28;19943;-43
2021/09/20 04:31:57;;;;;;;;;;;;;;;;;;2087732;28;19943;-43
2021/09/20 04:32:58;;;;;;;;;;;;;;;;;;2089444;28;20255;-43
2021/09/20 04:33:59;;;;;;;;;;;;;;;;;;2088707;28;19929;-43
2021/09/20 04:35:00;;;;;;;;;;;;;;;;;;2082623;28;20428;-43
2021/09/20 04:36:00;;;;;;;;;;;;;;;;;;2081243;28;19928;-43
2021/09/20 04:37:02;;;;;;;;;;;;;;;;;;2085725;28;20003;-43
2021/09/20 04:38:02;;;;;;;;;;;;;;;;;;2082333;28;19925;-43
2021/09/20 04:39:03;;;;;;;;;;;;;;;;;;2081276;28;19998;-43
2021/09/20 04:40:04;;;;;;;;;;;;;;;;;;2085401;28;20366;-43
2021/09/20 04:41:05;;;;;;;;;;;;;;;;;;2088506;28;20393;-43
2021/09/20 04:42:05;;;;;;;;;;;;;;;;;;2089311;28;19931;-43
2021/09/20 04:43:07;;;;;;;;;;;;;;;;;;2087252;28;19931;-43
2021/09/20 04:44:08;;;;;;;;;;;;;;;;;;2081118;28;20445;-43
2021/09/20 04:45:09;;;;;;;;;;;;;;;;;;2081296;28;19921;-43
2021/09/20 04:46:09;;;;;;;;;;;;;;;;;;2085152;28;20382;-43
2021/09/20 04:47:10;;;;;;;;;;;;;;;;;;2082728;28;19921;-43
2021/09/20 04:48:11;;;;;;;;;;;;;;;;;;2084018;28;19921;-43
2021/09/20 04:49:12;;;;;;;;;;;;;;;;;;2089023;28;19954;-43
2021/09/20 04:50:13;;;;;;;;;;;;;;;;;;2090767;28;19924;-43
2021/09/20 04:51:14;;;;;;;;;;;;;;;;;;2084115;28;19921;-43
2021/09/20 04:52:18;;;;;;;;;;;;;;;;;;2085090;28;19921;-43
2021/09/20 04:53:18;;;;;;;;;;;;;;;;;;2082629;28;20359;-43
2021/09/20 04:54:19;;;;;;;;;;;;;;;;;;2085420;28;19928;-43
2021/09/20 04:55:20;;;;;;;;;;;;;;;;;;2089418;28;19973;-43
2021/09/20 04:56:21;;;;;;;;;;;;;;;;;;2090730;28;19974;-43
2021/09/20 04:57:22;;;;;;;;;;;;;;;;;;2089903;28;19928;-43
2021/09/20 04:58:24;;;;;;;;;;;;;;;;;;2089402;28;20274;-43
2021/09/20 04:59:25;;;;;;;;;;;;;;;;;;2090699;28;19928;-43
2021/09/20 05:00:26;;;;;;;;;;;;;;;;;;2089698;28;19925;-43
2021/09/20 05:01:26;;;;;;;;;;;;;;;;;;2084115;28;19986;-43
2021/09/20 05:02:27;;;;;;;;;;;;;;;;;;2082454;28;19944;-43
2021/09/20 05:03:28;;;;;;;;;;;;;;;;;;2086123;28;19927;-43
2021/09/20 05:04:29;;;;;;;;;;;;;;;;;;2090512;28;20296;-43
2021/09/20 05:05:30;;;;;;;;;;;;;;;;;;2090646;28;19921;-43
2021/09/20 05:06:31;;;;;;;;;;;;;;;;;;2089428;28;19982;-43
2021/09/20 05:07:33;;;;;;;;;;;;;;;;;;2082821;28;19921;-43
2021/09/20 05:08:35;;;;;;;;;;;;;;;;;;2082379;28;19925;-43
2021/09/20 05:09:35;;;;;;;;;;;;;;;;;;2088075;28;19975;-43
2021/09/20 05:10:36;;;;;;;;;;;;;;;;;;2082324;28;19946;-44
2021/09/20 05:11:37;;;;;;;;;;;;;;;;;;2082374;28;20374;-43
2021/09/20 05:12:38;;;;;;;;;;;;;;;;;;2088078;28;20377;-43
2021/09/20 05:13:39;;;;;;;;;;;;;;;;;;2090596;28;19932;-43
2021/09/20 05:14:40;;;;;;;;;;;;;;;;;;2090348;28;19971;-43
2021/09/20 05:15:40;;;;;;;;;;;;;;;;;;2088270;28;19921;-43
2021/09/20 05:16:41;;;;;;;;;;;;;;;;;;2090654;28;20333;-43
2021/09/20 05:17:42;;;;;;;;;;;;;;;;;;2090164;28;19920;-43
2021/09/20 05:18:43;;;;;;;;;;;;;;;;;;2088749;28;20354;-43
2021/09/20 05:19:44;;;;;;;;;;;;;;;;;;2090657;28;19920;-43
2021/09/20 05:20:45;;;;;;;;;;;;;;;;;;2090105;28;19924;-43
2021/09/20 05:21:45;;;;;;;;;;;;;;;;;;2087045;28;19929;-43
2021/09/20 05:22:46;;;;;;;;;;;;;;;;;;2082353;28;19925;-43
2021/09/20 05:23:47;;;;;;;;;;;;;;;;;;2083975;28;19921;-43
2021/09/20 05:24:48;;;;;;;;;;;;;;;;;;2088924;28;19956;-43
2021/09/20 05:25:49;;;;;;;;;;;;;;;;;;2090469;28;20293;-43
2021/09/20 05:26:50;;;;;;;;;;;;;;;;;;2089650;28;19920;-43
2021/09/20 05:27:51;;;;;;;;;;;;;;;;;;2089061;28;20006;-43
2021/09/20 05:28:52;;;;;;;;;;;;;;;;;;2090537;28;19927;-44
2021/09/20 05:29:53;;;;;;;;;;;;;;;;;;2089790;28;20286;-43
2021/09/20 05:30:54;;;;;;;;;;;;;;;;;;2088927;28;20599;-45
2021/09/20 05:31:55;;;;;;;;;;;;;;;;;;2090502;28;19991;-43
2021/09/20 05:32:58;;;;;;;;;;;;;;;;;;2089529;28;19920;-44
2021/09/20 05:33:59;;;;;;;;;;;;;;;;;;2084380;28;19925;-44
2021/09/20 05:35:00;;;;;;;;;;;;;;;;;;2082331;28;19928;-43
2021/09/20 05:36:01;;;;;;;;;;;;;;;;;;2085831;28;19921;-43
2021/09/20 05:37:02;;;;;;;;;;;;;;;;;;2089515;28;19920;-59
2021/09/20 05:38:03;;;;;;;;;;;;;;;;;;2090379;28;19928;-59
2021/09/20 05:39:03;;;;;;;;;;;;;;;;;;2088585;28;19920;-60
2021/09/20 05:40:04;;;;;;;;;;;;;;;;;;2090213;28;19950;-60
2021/09/20 05:41:05;;;;;;;;;;;;;;;;;;2090492;28;20294;-59
2021/09/20 05:42:06;;;;;;;;;;;;;;;;;;2088199;28;20378;-60
2021/09/20 05:43:07;;;;;;;;;;;;;;;;;;2090342;28;20058;-59
2021/09/20 05:44:07;;;;;;;;;;;;;;;;;;2090364;28;19996;-59
2021/09/20 05:45:08;;;;;;;;;;;;;;;;;;2088421;28;19932;-59
2021/09/20 05:46:09;;;;;;;;;;;;;;;;;;2082154;28;19983;-60
2021/09/20 05:47:10;;;;;;;;;;;;;;;;;;2082205;28;19921;-59
2021/09/20 05:48:11;;;;;;;;;;;;;;;;;;2087303;28;19933;-59
2021/09/20 05:49:12;;;;;;;;;;;;;;;;;;2090446;28;19925;-60
2021/09/20 05:50:13;;;;;;;;;;;;;;;;;;2090351;28;19931;-59
2021/09/20 05:51:15;;;;;;;;;;;;;;;;;;2086064;28;20087;-60
2021/09/20 05:52:15;;;;;;;;;;;;;;;;;;2090372;28;20374;-59
2021/09/20 05:53:16;;;;;;;;;;;;;;;;;;2089896;28;20019;-60
2021/09/20 05:54:17;;;;;;;;;;;;;;;;;;2088513;28;19927;-60
2021/09/20 05:55:18;;;;;;;;;;;;;;;;;;2090329;28;19940;-61
2021/09/20 05:56:19;;;;;;;;;;;;;;;;;;2089917;28;19921;-61
2021/09/20 05:57:20;;;;;;;;;;;;;;;;;;2088497;28;19921;-61
2021/09/20 05:58:21;;;;;;;;;;;;;;;;;;2089778;28;19927;-61
2021/09/20 05:59:21;;;;;;;;;;;;;;;;;;2089718;28;19928;-61
2021/09/20 06:00:22;;;;;;;;;;;;;;;;;;2086395;28;20410;-60
2021/09/20 06:01:23;;;;;;;;;;;;;;;;;;2082148;28;19928;-60
2021/09/20 06:02:24;;;;;;;;;;;;;;;;;;2083811;28;19929;-61
2021/09/20 06:03:26;;;;;;;;;;;;;;;;;;2084890;28;20264;-60
2021/09/20 06:04:28;;;;;;;;;;;;;;;;;;2082207;28;19948;-61
2021/09/20 06:05:30;;;;;;;;;;;;;;;;;;2084401;28;19927;-61
2021/09/20 06:06:30;;;;;;;;;;;;;;;;;;2088971;28;20268;-61
2021/09/20 06:07:31;;;;;;;;;;;;;;;;;;2090337;28;19927;-61
2021/09/20 06:08:32;;;;;;;;;;;;;;;;;;2089511;28;19925;-60
2021/09/20 06:09:35;;;;;;;;;;;;;;;;;;2088943;28;19920;-62
2021/09/20 06:10:36;;;;;;;;;;;;;;;;;;2090435;28;19955;-60
2021/09/20 06:11:37;;;;;;;;;;;;;;;;;;2089299;28;19924;-61
2021/09/20 06:12:38;;;;;;;;;;;;;;;;;;2083692;28;19921;-61
2021/09/20 06:13:39;;;;;;;;;;;;;;;;;;2082110;28;19972;-61
2021/09/20 06:14:40;;;;;;;;;;;;;;;;;;2085788;28;19944;-61
2021/09/20 06:15:40;;;;;;;;;;;;;;;;;;2089779;28;19950;-59
2021/09/20 06:16:41;;;;;;;;;;;;;;;;;;2090399;28;20377;-61
2021/09/20 06:17:42;;;;;;;;;;;;;;;;;;2088110;28;19924;-60
2021/09/20 06:18:43;;;;;;;;;;;;;;;;;;2090034;28;19920;-59
2021/09/20 06:19:46;;;;;;;;;;;;;;;;;;2090366;28;20394;-61
2021/09/20 06:20:47;;;;;;;;;;;;;;;;;;2088697;28;19963;-61
2021/09/20 06:21:50;;;;;;;;;;;;;;;;;;2082118;28;19928;-61
2021/09/20 06:22:50;;;;;;;;;;;;;;;;;;2082001;28;20008;-60
2021/09/20 06:23:51;;;;;;;;;;;;;;;;;;2087699;28;19920;-60
2021/09/20 06:24:54;;;;;;;;;;;;;;;;;;2082010;28;19975;-61
2021/09/20 06:25:55;;;;;;;;;;;;;;;;;;2082065;28;19953;-60
2021/09/20 06:26:56;;;;;;;;;;;;;;;;;;2087437;28;20023;-59
2021/09/20 06:27:57;;;;;;;;;;;;;;;;;;2082069;28;19928;-60
2021/09/20 06:28:58;;;;;;;;;;;;;;;;;;2082814;28;19921;-60
2021/09/20 06:29:58;;;;;;;;;;;;;;;;;;2086625;28;20431;-61
2021/09/20 06:31:02;;;;;;;;;;;;;;;;;;2081783;28;20366;-59
2021/09/20 06:32:03;;;;;;;;;;;;;;;;;;2083594;28;19928;-60
2021/09/20 06:33:04;;;;;;;;;;;;;;;;;;2088052;28;19921;-59
2021/09/20 06:34:04;;;;;;;;;;;;;;;;;;2090568;28;19921;-60
2021/09/20 06:35:05;;;;;;;;;;;;;;;;;;2089089;28;19932;-59
2021/09/20 06:36:06;;;;;;;;;;;;;;;;;;2088478;28;19924;-60
2021/09/20 06:37:07;;;;;;;;;;;;;;;;;;2090111;28;19920;-60
2021/09/20 06:38:08;;;;;;;;;;;;;;;;;;2089349;28;20346;-59
2021/09/20 06:39:09;;;;;;;;;;;;;;;;;;2084689;28;19968;-59
2021/09/20 06:40:10;;;;;;;;;;;;;;;;;;2082020;28;20405;-59
2021/09/20 06:41:10;;;;;;;;;;;;;;;;;;2084898;28;19927;-59
2021/09/20 06:42:11;;;;;;;;;;;;;;;;;;2088664;28;19921;-60
2021/09/20 06:43:12;;;;;;;;;;;;;;;;;;2090104;28;19924;-60
2021/09/20 06:44:13;;;;;;;;;;;;;;;;;;2089187;28;20255;-59
2021/09/20 06:45:14;;;;;;;;;;;;;;;;;;2088787;28;19928;-59
2021/09/20 06:46:14;;;;;;;;;;;;;;;;;;2090008;28;19921;-59
2021/09/20 06:47:15;;;;;;;;;;;;;;;;;;2089065;28;19928;-60
2021/09/20 06:48:16;;;;;;;;;;;;;;;;;;2083009;28;20297;-60
2021/09/20 06:49:21;;;;;;;;;;;;;;;;;;2081822;28;19921;-59
2021/09/20 06:50:22;;;;;;;;;;;;;;;;;;2085911;28;20481;-59
2021/09/20 06:51:22;;;;;;;;;;;;;;;;;;2088227;28;19927;-59
2021/09/20 06:52:23;;;;;;;;;;;;;;;;;;2090025;28;19920;-59
2021/09/20 06:53:24;;;;;;;;;;;;;;;;;;2087732;28;19990;-59
2021/09/20 06:54:25;;;;;;;;;;;;;;;;;;2090068;28;20196;-59
2021/09/20 06:55:26;;;;;;;;;;;;;;;;;;2089876;28;19924;-60